sensor_id;sensor_type;location;lat;lon;timestamp;P1;durP1;ratioP1;P2;durP2;ratioP2
5357;SDS011;2702;51.014;7.170;2023-01-09T00:00:24;1.40;;;1.30;;
5357;SDS011;2702;51.014;7.170;2023-01-09T00:02:51;2.23;;;1.03;;
5357;SDS011;2702;51.014;7.170;2023-01-09T00:05:18;1.67;;;1.23;;
5357;SDS011;2702;51.014;7.170;2023-01-09T00:07:45;1.60;;;1.23;;
5357;SDS011;2702;51.014;7.170;2023-01-09T00:10:11;1.20;;;1.10;;
5357;SDS011;2702;51.014;7.170;2023-01-09T00:12:37;1.20;;;1.17;;
5357;SDS011;2702;51.014;7.170;2023-01-09T00:15:03;2.00;;;1.30;;
5357;SDS011;2702;51.014;7.170;2023-01-09T00:17:29;2.60;;;1.20;;
5357;SDS011;2702;51.014;7.170;2023-01-09T00:19:55;2.30;;;1.47;;
5357;SDS011;2702;51.014;7.170;2023-01-09T00:22:22;2.43;;;1.43;;
5357;SDS011;2702;51.014;7.170;2023-01-09T00:24:48;2.63;;;1.67;;
5357;SDS011;2702;51.014;7.170;2023-01-09T00:27:14;1.40;;;1.30;;
5357;SDS011;2702;51.014;7.170;2023-01-09T00:29:40;1.57;;;1.43;;
5357;SDS011;2702;51.014;7.170;2023-01-09T00:32:07;1.20;;;1.00;;
5357;SDS011;2702;51.014;7.170;2023-01-09T00:34:35;1.10;;;1.10;;
5357;SDS011;2702;51.014;7.170;2023-01-09T00:37:02;0.80;;;0.80;;
5357;SDS011;2702;51.014;7.170;2023-01-09T00:39:28;1.03;;;0.93;;
5357;SDS011;2702;51.014;7.170;2023-01-09T00:41:54;0.80;;;0.80;;
5357;SDS011;2702;51.014;7.170;2023-01-09T00:44:31;1.70;;;1.00;;
5357;SDS011;2702;51.014;7.170;2023-01-09T00:47:01;1.23;;;1.00;;
5357;SDS011;2702;51.014;7.170;2023-01-09T00:49:33;0.80;;;0.77;;
5357;SDS011;2702;51.014;7.170;2023-01-09T00:52:02;0.90;;;0.90;;
5357;SDS011;2702;51.014;7.170;2023-01-09T00:54:30;1.00;;;1.00;;
5357;SDS011;2702;51.014;7.170;2023-01-09T00:56:57;1.13;;;0.90;;
5357;SDS011;2702;51.014;7.170;2023-01-09T00:59:24;0.63;;;0.63;;
5357;SDS011;2702;51.014;7.170;2023-01-09T01:01:51;1.57;;;0.80;;
5357;SDS011;2702;51.014;7.170;2023-01-09T01:04:17;1.03;;;0.80;;
5357;SDS011;2702;51.014;7.170;2023-01-09T01:07:02;0.90;;;0.70;;
5357;SDS011;2702;51.014;7.170;2023-01-09T01:09:46;1.47;;;0.93;;
5357;SDS011;2702;51.014;7.170;2023-01-09T01:12:12;0.80;;;0.80;;
5357;SDS011;2702;51.014;7.170;2023-01-09T01:14:38;1.77;;;0.67;;
5357;SDS011;2702;51.014;7.170;2023-01-09T01:17:04;0.90;;;0.77;;
5357;SDS011;2702;51.014;7.170;2023-01-09T01:19:34;0.80;;;0.70;;
5357;SDS011;2702;51.014;7.170;2023-01-09T01:22:00;1.13;;;0.60;;
5357;SDS011;2702;51.014;7.170;2023-01-09T01:24:26;0.57;;;0.57;;
5357;SDS011;2702;51.014;7.170;2023-01-09T01:26:52;0.53;;;0.50;;
5357;SDS011;2702;51.014;7.170;2023-01-09T01:29:17;0.60;;;0.50;;
5357;SDS011;2702;51.014;7.170;2023-01-09T01:31:43;0.53;;;0.47;;
5357;SDS011;2702;51.014;7.170;2023-01-09T01:34:09;0.50;;;0.40;;
5357;SDS011;2702;51.014;7.170;2023-01-09T01:36:35;0.43;;;0.30;;
5357;SDS011;2702;51.014;7.170;2023-01-09T01:39:01;0.80;;;0.30;;
5357;SDS011;2702;51.014;7.170;2023-01-09T01:41:27;1.00;;;0.40;;
5357;SDS011;2702;51.014;7.170;2023-01-09T01:43:57;0.50;;;0.50;;
5357;SDS011;2702;51.014;7.170;2023-01-09T01:46:23;0.50;;;0.40;;
5357;SDS011;2702;51.014;7.170;2023-01-09T01:48:51;0.50;;;0.40;;
5357;SDS011;2702;51.014;7.170;2023-01-09T01:51:24;0.50;;;0.50;;
5357;SDS011;2702;51.014;7.170;2023-01-09T01:53:54;0.60;;;0.50;;
5357;SDS011;2702;51.014;7.170;2023-01-09T01:56:27;0.40;;;0.30;;
5357;SDS011;2702;51.014;7.170;2023-01-09T01:59:16;0.50;;;0.40;;
5357;SDS011;2702;51.014;7.170;2023-01-09T02:02:19;0.40;;;0.30;;
5357;SDS011;2702;51.014;7.170;2023-01-09T02:04:49;0.40;;;0.30;;
5357;SDS011;2702;51.014;7.170;2023-01-09T02:07:17;0.50;;;0.30;;
5357;SDS011;2702;51.014;7.170;2023-01-09T02:09:43;1.70;;;0.40;;
5357;SDS011;2702;51.014;7.170;2023-01-09T02:12:17;0.53;;;0.40;;
5357;SDS011;2702;51.014;7.170;2023-01-09T02:14:48;0.60;;;0.40;;
5357;SDS011;2702;51.014;7.170;2023-01-09T02:22:58;0.90;;;0.30;;
5357;SDS011;2702;51.014;7.170;2023-01-09T02:31:30;0.50;;;0.37;;
5357;SDS011;2702;51.014;7.170;2023-01-09T02:34:01;0.90;;;0.47;;
5357;SDS011;2702;51.014;7.170;2023-01-09T02:41:46;0.50;;;0.40;;
5357;SDS011;2702;51.014;7.170;2023-01-09T02:44:31;0.40;;;0.30;;
5357;SDS011;2702;51.014;7.170;2023-01-09T02:49:51;0.60;;;0.50;;
5357;SDS011;2702;51.014;7.170;2023-01-09T02:52:31;0.73;;;0.37;;
5357;SDS011;2702;51.014;7.170;2023-01-09T02:57:45;0.93;;;0.40;;
5357;SDS011;2702;51.014;7.170;2023-01-09T03:09:07;0.60;;;0.50;;
5357;SDS011;2702;51.014;7.170;2023-01-09T03:11:45;0.73;;;0.73;;
5357;SDS011;2702;51.014;7.170;2023-01-09T03:14:15;0.70;;;0.60;;
5357;SDS011;2702;51.014;7.170;2023-01-09T03:16:45;0.60;;;0.57;;
5357;SDS011;2702;51.014;7.170;2023-01-09T03:19:15;0.60;;;0.50;;
5357;SDS011;2702;51.014;7.170;2023-01-09T03:21:44;1.33;;;0.60;;
5357;SDS011;2702;51.014;7.170;2023-01-09T03:24:12;0.60;;;0.60;;
5357;SDS011;2702;51.014;7.170;2023-01-09T03:26:37;1.47;;;0.47;;
5357;SDS011;2702;51.014;7.170;2023-01-09T03:29:03;0.77;;;0.53;;
5357;SDS011;2702;51.014;7.170;2023-01-09T03:31:29;0.90;;;0.53;;
5357;SDS011;2702;51.014;7.170;2023-01-09T03:33:55;2.07;;;0.50;;
5357;SDS011;2702;51.014;7.170;2023-01-09T03:36:21;0.70;;;0.47;;
5357;SDS011;2702;51.014;7.170;2023-01-09T03:38:48;0.93;;;0.63;;
5357;SDS011;2702;51.014;7.170;2023-01-09T03:41:15;0.70;;;0.60;;
5357;SDS011;2702;51.014;7.170;2023-01-09T03:43:43;0.60;;;0.60;;
5357;SDS011;2702;51.014;7.170;2023-01-09T03:46:09;1.23;;;0.50;;
5357;SDS011;2702;51.014;7.170;2023-01-09T03:48:35;1.00;;;0.60;;
5357;SDS011;2702;51.014;7.170;2023-01-09T03:51:01;0.80;;;0.77;;
5357;SDS011;2702;51.014;7.170;2023-01-09T03:53:27;1.53;;;0.70;;
5357;SDS011;2702;51.014;7.170;2023-01-09T03:55:54;1.30;;;0.70;;
5357;SDS011;2702;51.014;7.170;2023-01-09T03:58:21;2.00;;;0.80;;
5357;SDS011;2702;51.014;7.170;2023-01-09T04:00:48;0.70;;;0.70;;
5357;SDS011;2702;51.014;7.170;2023-01-09T04:03:16;1.50;;;0.67;;
5357;SDS011;2702;51.014;7.170;2023-01-09T04:05:44;1.70;;;0.80;;
5357;SDS011;2702;51.014;7.170;2023-01-09T04:08:12;1.07;;;0.80;;
5357;SDS011;2702;51.014;7.170;2023-01-09T04:10:38;1.20;;;1.07;;
5357;SDS011;2702;51.014;7.170;2023-01-09T04:13:04;1.13;;;0.70;;
5357;SDS011;2702;51.014;7.170;2023-01-09T04:15:30;2.60;;;1.40;;
5357;SDS011;2702;51.014;7.170;2023-01-09T04:17:56;1.87;;;0.63;;
5357;SDS011;2702;51.014;7.170;2023-01-09T04:20:21;1.20;;;0.67;;
5357;SDS011;2702;51.014;7.170;2023-01-09T04:22:47;1.10;;;0.70;;
5357;SDS011;2702;51.014;7.170;2023-01-09T04:25:13;1.37;;;0.50;;
5357;SDS011;2702;51.014;7.170;2023-01-09T04:27:39;2.37;;;0.60;;
5357;SDS011;2702;51.014;7.170;2023-01-09T04:30:05;0.93;;;0.70;;
5357;SDS011;2702;51.014;7.170;2023-01-09T04:32:32;5.37;;;0.90;;
5357;SDS011;2702;51.014;7.170;2023-01-09T04:34:57;1.20;;;0.60;;
5357;SDS011;2702;51.014;7.170;2023-01-09T04:37:23;2.00;;;0.90;;
5357;SDS011;2702;51.014;7.170;2023-01-09T04:39:49;2.00;;;0.80;;
5357;SDS011;2702;51.014;7.170;2023-01-09T04:42:20;0.80;;;0.60;;
5357;SDS011;2702;51.014;7.170;2023-01-09T04:44:46;1.80;;;0.80;;
5357;SDS011;2702;51.014;7.170;2023-01-09T04:47:12;1.63;;;0.80;;
5357;SDS011;2702;51.014;7.170;2023-01-09T04:49:38;2.30;;;0.70;;
5357;SDS011;2702;51.014;7.170;2023-01-09T04:52:04;1.43;;;1.30;;
5357;SDS011;2702;51.014;7.170;2023-01-09T04:54:30;1.77;;;0.90;;
5357;SDS011;2702;51.014;7.170;2023-01-09T04:56:56;1.00;;;0.80;;
5357;SDS011;2702;51.014;7.170;2023-01-09T04:59:22;1.40;;;0.87;;
5357;SDS011;2702;51.014;7.170;2023-01-09T05:01:48;1.27;;;0.87;;
5357;SDS011;2702;51.014;7.170;2023-01-09T05:04:16;2.77;;;1.10;;
5357;SDS011;2702;51.014;7.170;2023-01-09T05:06:42;2.80;;;0.77;;
5357;SDS011;2702;51.014;7.170;2023-01-09T05:09:08;0.60;;;0.50;;
5357;SDS011;2702;51.014;7.170;2023-01-09T05:11:33;0.73;;;0.50;;
5357;SDS011;2702;51.014;7.170;2023-01-09T05:13:59;2.00;;;0.77;;
5357;SDS011;2702;51.014;7.170;2023-01-09T05:16:25;1.10;;;0.50;;
5357;SDS011;2702;51.014;7.170;2023-01-09T05:18:51;0.70;;;0.63;;
5357;SDS011;2702;51.014;7.170;2023-01-09T05:21:20;4.23;;;0.60;;
5357;SDS011;2702;51.014;7.170;2023-01-09T05:23:49;1.70;;;0.63;;
5357;SDS011;2702;51.014;7.170;2023-01-09T05:26:15;0.67;;;0.50;;
5357;SDS011;2702;51.014;7.170;2023-01-09T05:28:41;0.70;;;0.60;;
5357;SDS011;2702;51.014;7.170;2023-01-09T05:31:07;2.50;;;0.80;;
5357;SDS011;2702;51.014;7.170;2023-01-09T05:33:32;1.33;;;1.00;;
5357;SDS011;2702;51.014;7.170;2023-01-09T05:35:58;3.67;;;1.17;;
5357;SDS011;2702;51.014;7.170;2023-01-09T05:38:24;2.10;;;0.70;;
5357;SDS011;2702;51.014;7.170;2023-01-09T05:40:50;1.83;;;0.70;;
5357;SDS011;2702;51.014;7.170;2023-01-09T05:43:16;2.20;;;1.03;;
5357;SDS011;2702;51.014;7.170;2023-01-09T05:45:41;1.80;;;0.70;;
5357;SDS011;2702;51.014;7.170;2023-01-09T05:48:07;3.17;;;0.70;;
5357;SDS011;2702;51.014;7.170;2023-01-09T05:50:33;4.07;;;0.87;;
5357;SDS011;2702;51.014;7.170;2023-01-09T05:52:59;3.30;;;0.83;;
5357;SDS011;2702;51.014;7.170;2023-01-09T05:55:25;1.00;;;0.50;;
5357;SDS011;2702;51.014;7.170;2023-01-09T05:57:51;1.97;;;0.70;;
5357;SDS011;2702;51.014;7.170;2023-01-09T06:00:16;1.07;;;0.70;;
5357;SDS011;2702;51.014;7.170;2023-01-09T06:02:43;3.23;;;0.90;;
5357;SDS011;2702;51.014;7.170;2023-01-09T06:05:08;3.13;;;0.87;;
5357;SDS011;2702;51.014;7.170;2023-01-09T06:07:34;0.93;;;0.77;;
5357;SDS011;2702;51.014;7.170;2023-01-09T06:10:04;2.53;;;0.90;;
5357;SDS011;2702;51.014;7.170;2023-01-09T06:12:31;3.13;;;0.70;;
5357;SDS011;2702;51.014;7.170;2023-01-09T06:14:56;1.53;;;0.70;;
5357;SDS011;2702;51.014;7.170;2023-01-09T06:17:22;2.60;;;0.90;;
5357;SDS011;2702;51.014;7.170;2023-01-09T06:19:48;2.47;;;0.93;;
5357;SDS011;2702;51.014;7.170;2023-01-09T06:22:15;3.40;;;1.00;;
5357;SDS011;2702;51.014;7.170;2023-01-09T06:24:41;2.10;;;0.90;;
5357;SDS011;2702;51.014;7.170;2023-01-09T06:27:07;3.77;;;0.93;;
5357;SDS011;2702;51.014;7.170;2023-01-09T06:29:33;4.03;;;0.87;;
5357;SDS011;2702;51.014;7.170;2023-01-09T06:31:58;1.27;;;0.73;;
5357;SDS011;2702;51.014;7.170;2023-01-09T06:34:24;1.70;;;0.80;;
5357;SDS011;2702;51.014;7.170;2023-01-09T06:36:50;0.90;;;0.70;;
5357;SDS011;2702;51.014;7.170;2023-01-09T06:39:16;3.00;;;1.00;;
5357;SDS011;2702;51.014;7.170;2023-01-09T06:41:42;1.83;;;0.90;;
5357;SDS011;2702;51.014;7.170;2023-01-09T06:44:09;2.20;;;0.70;;
5357;SDS011;2702;51.014;7.170;2023-01-09T06:46:35;2.70;;;0.90;;
5357;SDS011;2702;51.014;7.170;2023-01-09T06:49:01;3.17;;;0.77;;
5357;SDS011;2702;51.014;7.170;2023-01-09T06:51:27;1.10;;;0.97;;
5357;SDS011;2702;51.014;7.170;2023-01-09T06:53:52;0.70;;;0.70;;
5357;SDS011;2702;51.014;7.170;2023-01-09T06:56:18;2.30;;;0.97;;
5357;SDS011;2702;51.014;7.170;2023-01-09T06:58:44;1.47;;;0.70;;
5357;SDS011;2702;51.014;7.170;2023-01-09T07:01:10;2.30;;;0.90;;
5357;SDS011;2702;51.014;7.170;2023-01-09T07:03:36;2.60;;;1.10;;
5357;SDS011;2702;51.014;7.170;2023-01-09T07:06:02;3.00;;;1.03;;
5357;SDS011;2702;51.014;7.170;2023-01-09T07:08:28;1.37;;;0.63;;
5357;SDS011;2702;51.014;7.170;2023-01-09T07:10:54;1.30;;;0.90;;
5357;SDS011;2702;51.014;7.170;2023-01-09T07:13:20;3.23;;;0.80;;
5357;SDS011;2702;51.014;7.170;2023-01-09T07:15:45;2.90;;;0.87;;
5357;SDS011;2702;51.014;7.170;2023-01-09T07:18:11;1.80;;;0.80;;
5357;SDS011;2702;51.014;7.170;2023-01-09T07:20:38;3.70;;;1.00;;
5357;SDS011;2702;51.014;7.170;2023-01-09T07:23:10;2.23;;;0.60;;
5357;SDS011;2702;51.014;7.170;2023-01-09T07:25:37;1.60;;;0.90;;
5357;SDS011;2702;51.014;7.170;2023-01-09T07:28:03;2.00;;;0.90;;
5357;SDS011;2702;51.014;7.170;2023-01-09T07:30:29;2.40;;;0.70;;
5357;SDS011;2702;51.014;7.170;2023-01-09T07:32:57;0.80;;;0.70;;
5357;SDS011;2702;51.014;7.170;2023-01-09T07:35:23;0.73;;;0.70;;
5357;SDS011;2702;51.014;7.170;2023-01-09T07:37:49;1.47;;;0.63;;
5357;SDS011;2702;51.014;7.170;2023-01-09T07:40:15;1.10;;;0.60;;
5357;SDS011;2702;51.014;7.170;2023-01-09T07:42:41;1.00;;;0.63;;
5357;SDS011;2702;51.014;7.170;2023-01-09T07:45:07;2.80;;;0.97;;
5357;SDS011;2702;51.014;7.170;2023-01-09T07:47:33;0.90;;;0.70;;
5357;SDS011;2702;51.014;7.170;2023-01-09T07:49:59;0.70;;;0.67;;
5357;SDS011;2702;51.014;7.170;2023-01-09T07:52:25;1.07;;;0.70;;
5357;SDS011;2702;51.014;7.170;2023-01-09T07:54:52;1.13;;;0.70;;
5357;SDS011;2702;51.014;7.170;2023-01-09T07:57:18;2.40;;;0.70;;
5357;SDS011;2702;51.014;7.170;2023-01-09T07:59:43;1.13;;;0.67;;
5357;SDS011;2702;51.014;7.170;2023-01-09T08:02:09;1.90;;;0.70;;
5357;SDS011;2702;51.014;7.170;2023-01-09T08:04:36;1.10;;;0.60;;
5357;SDS011;2702;51.014;7.170;2023-01-09T08:07:02;1.57;;;0.60;;
5357;SDS011;2702;51.014;7.170;2023-01-09T08:09:28;1.33;;;0.60;;
5357;SDS011;2702;51.014;7.170;2023-01-09T08:11:55;2.17;;;0.60;;
5357;SDS011;2702;51.014;7.170;2023-01-09T08:14:21;2.90;;;0.60;;
5357;SDS011;2702;51.014;7.170;2023-01-09T08:16:47;1.43;;;0.40;;
5357;SDS011;2702;51.014;7.170;2023-01-09T08:19:13;0.80;;;0.70;;
5357;SDS011;2702;51.014;7.170;2023-01-09T08:21:39;1.43;;;0.60;;
5357;SDS011;2702;51.014;7.170;2023-01-09T08:24:05;1.90;;;0.60;;
5357;SDS011;2702;51.014;7.170;2023-01-09T08:26:31;0.60;;;0.43;;
5357;SDS011;2702;51.014;7.170;2023-01-09T08:28:57;1.20;;;0.43;;
5357;SDS011;2702;51.014;7.170;2023-01-09T08:31:23;1.77;;;0.50;;
5357;SDS011;2702;51.014;7.170;2023-01-09T08:33:49;0.90;;;0.70;;
5357;SDS011;2702;51.014;7.170;2023-01-09T08:36:15;3.67;;;0.70;;
5357;SDS011;2702;51.014;7.170;2023-01-09T08:38:41;1.70;;;0.70;;
5357;SDS011;2702;51.014;7.170;2023-01-09T08:41:06;2.90;;;0.90;;
5357;SDS011;2702;51.014;7.170;2023-01-09T08:43:50;1.70;;;0.60;;
5357;SDS011;2702;51.014;7.170;2023-01-09T08:46:35;1.13;;;0.97;;
5357;SDS011;2702;51.014;7.170;2023-01-09T08:49:20;2.70;;;0.87;;
5357;SDS011;2702;51.014;7.170;2023-01-09T08:51:46;1.23;;;0.57;;
5357;SDS011;2702;51.014;7.170;2023-01-09T08:54:12;1.50;;;0.80;;
5357;SDS011;2702;51.014;7.170;2023-01-09T08:56:38;1.00;;;0.60;;
5357;SDS011;2702;51.014;7.170;2023-01-09T08:59:04;0.90;;;0.60;;
5357;SDS011;2702;51.014;7.170;2023-01-09T09:01:30;0.90;;;0.77;;
5357;SDS011;2702;51.014;7.170;2023-01-09T09:03:56;2.87;;;1.70;;
5357;SDS011;2702;51.014;7.170;2023-01-09T09:06:22;1.80;;;0.77;;
5357;SDS011;2702;51.014;7.170;2023-01-09T09:08:48;2.60;;;0.77;;
5357;SDS011;2702;51.014;7.170;2023-01-09T09:11:14;1.10;;;0.60;;
5357;SDS011;2702;51.014;7.170;2023-01-09T09:13:40;1.33;;;0.70;;
5357;SDS011;2702;51.014;7.170;2023-01-09T09:16:05;1.00;;;0.57;;
5357;SDS011;2702;51.014;7.170;2023-01-09T09:18:31;2.97;;;0.50;;
5357;SDS011;2702;51.014;7.170;2023-01-09T09:20:57;1.63;;;0.60;;
5357;SDS011;2702;51.014;7.170;2023-01-09T09:23:23;1.00;;;0.60;;
5357;SDS011;2702;51.014;7.170;2023-01-09T09:25:49;2.20;;;1.13;;
5357;SDS011;2702;51.014;7.170;2023-01-09T09:28:15;0.63;;;0.60;;
5357;SDS011;2702;51.014;7.170;2023-01-09T09:30:41;1.10;;;0.87;;
5357;SDS011;2702;51.014;7.170;2023-01-09T09:33:07;1.03;;;0.70;;
5357;SDS011;2702;51.014;7.170;2023-01-09T09:35:32;1.13;;;0.80;;
5357;SDS011;2702;51.014;7.170;2023-01-09T09:37:59;2.60;;;1.00;;
5357;SDS011;2702;51.014;7.170;2023-01-09T09:49:14;1.73;;;0.70;;
5357;SDS011;2702;51.014;7.170;2023-01-09T09:51:49;1.57;;;0.60;;
5357;SDS011;2702;51.014;7.170;2023-01-09T09:54:17;1.80;;;0.73;;
5357;SDS011;2702;51.014;7.170;2023-01-09T09:56:54;1.77;;;0.70;;
5357;SDS011;2702;51.014;7.170;2023-01-09T09:59:23;2.00;;;0.80;;
5357;SDS011;2702;51.014;7.170;2023-01-09T10:02:03;4.10;;;0.90;;
5357;SDS011;2702;51.014;7.170;2023-01-09T10:04:32;1.13;;;0.70;;
5357;SDS011;2702;51.014;7.170;2023-01-09T10:07:05;4.30;;;1.00;;
5357;SDS011;2702;51.014;7.170;2023-01-09T10:09:44;1.30;;;0.70;;
5357;SDS011;2702;51.014;7.170;2023-01-09T10:12:28;2.57;;;0.87;;
5357;SDS011;2702;51.014;7.170;2023-01-09T10:15:18;2.43;;;0.90;;
5357;SDS011;2702;51.014;7.170;2023-01-09T10:20:47;2.20;;;1.00;;
5357;SDS011;2702;51.014;7.170;2023-01-09T10:26:27;0.80;;;0.80;;
5357;SDS011;2702;51.014;7.170;2023-01-09T10:37:12;2.30;;;0.73;;
5357;SDS011;2702;51.014;7.170;2023-01-09T10:39:50;2.30;;;1.20;;
5357;SDS011;2702;51.014;7.170;2023-01-09T10:47:52;1.30;;;0.70;;
5357;SDS011;2702;51.014;7.170;2023-01-09T10:50:29;1.90;;;1.20;;
5357;SDS011;2702;51.014;7.170;2023-01-09T10:53:04;2.23;;;1.10;;
5357;SDS011;2702;51.014;7.170;2023-01-09T10:55:45;0.97;;;0.97;;
5357;SDS011;2702;51.014;7.170;2023-01-09T10:58:13;1.17;;;0.70;;
5357;SDS011;2702;51.014;7.170;2023-01-09T11:00:43;0.90;;;0.83;;
5357;SDS011;2702;51.014;7.170;2023-01-09T11:03:14;2.10;;;1.10;;
5357;SDS011;2702;51.014;7.170;2023-01-09T11:05:42;2.90;;;0.83;;
5357;SDS011;2702;51.014;7.170;2023-01-09T11:08:21;1.47;;;0.70;;
5357;SDS011;2702;51.014;7.170;2023-01-09T11:10:49;2.00;;;0.93;;
5357;SDS011;2702;51.014;7.170;2023-01-09T11:13:21;1.57;;;1.10;;
5357;SDS011;2702;51.014;7.170;2023-01-09T11:16:05;1.47;;;0.80;;
5357;SDS011;2702;51.014;7.170;2023-01-09T11:18:39;1.77;;;0.90;;
5357;SDS011;2702;51.014;7.170;2023-01-09T11:24:22;1.17;;;0.90;;
5357;SDS011;2702;51.014;7.170;2023-01-09T11:26:53;1.77;;;1.13;;
5357;SDS011;2702;51.014;7.170;2023-01-09T11:29:41;1.43;;;1.00;;
5357;SDS011;2702;51.014;7.170;2023-01-09T11:32:20;1.30;;;1.17;;
5357;SDS011;2702;51.014;7.170;2023-01-09T11:34:47;2.00;;;1.07;;
5357;SDS011;2702;51.014;7.170;2023-01-09T11:37:17;3.07;;;0.90;;
5357;SDS011;2702;51.014;7.170;2023-01-09T11:39:52;1.90;;;0.93;;
5357;SDS011;2702;51.014;7.170;2023-01-09T11:42:20;1.57;;;0.87;;
5357;SDS011;2702;51.014;7.170;2023-01-09T11:45:22;1.40;;;0.80;;
5357;SDS011;2702;51.014;7.170;2023-01-09T11:47:57;3.63;;;0.90;;
5357;SDS011;2702;51.014;7.170;2023-01-09T11:50:24;2.13;;;0.80;;
5357;SDS011;2702;51.014;7.170;2023-01-09T11:55:55;1.67;;;0.80;;
5357;SDS011;2702;51.014;7.170;2023-01-09T11:58:32;1.67;;;0.90;;
5357;SDS011;2702;51.014;7.170;2023-01-09T12:12:17;1.47;;;0.70;;
5357;SDS011;2702;51.014;7.170;2023-01-09T12:15:06;3.27;;;0.87;;
5357;SDS011;2702;51.014;7.170;2023-01-09T12:17:52;1.00;;;0.87;;
5357;SDS011;2702;51.014;7.170;2023-01-09T12:25:43;1.07;;;0.80;;
5357;SDS011;2702;51.014;7.170;2023-01-09T12:37:32;1.57;;;0.80;;
5357;SDS011;2702;51.014;7.170;2023-01-09T12:41:00;1.07;;;0.80;;
5357;SDS011;2702;51.014;7.170;2023-01-09T12:46:17;0.60;;;0.60;;
5357;SDS011;2702;51.014;7.170;2023-01-09T12:53:54;0.90;;;0.60;;
5357;SDS011;2702;51.014;7.170;2023-01-09T12:56:25;2.47;;;0.60;;
5357;SDS011;2702;51.014;7.170;2023-01-09T12:59:00;0.60;;;0.50;;
5357;SDS011;2702;51.014;7.170;2023-01-09T13:01:54;0.83;;;0.70;;
5357;SDS011;2702;51.014;7.170;2023-01-09T13:04:48;0.80;;;0.80;;
5357;SDS011;2702;51.014;7.170;2023-01-09T13:07:31;2.80;;;0.90;;
5357;SDS011;2702;51.014;7.170;2023-01-09T13:10:21;1.03;;;1.00;;
5357;SDS011;2702;51.014;7.170;2023-01-09T13:12:54;2.10;;;1.03;;
5357;SDS011;2702;51.014;7.170;2023-01-09T13:15:31;1.53;;;1.03;;
5357;SDS011;2702;51.014;7.170;2023-01-09T13:20:54;1.00;;;0.90;;
5357;SDS011;2702;51.014;7.170;2023-01-09T13:23:25;0.90;;;0.90;;
5357;SDS011;2702;51.014;7.170;2023-01-09T13:26:05;1.37;;;0.73;;
5357;SDS011;2702;51.014;7.170;2023-01-09T13:28:45;2.10;;;1.27;;
5357;SDS011;2702;51.014;7.170;2023-01-09T13:34:20;1.83;;;1.10;;
5357;SDS011;2702;51.014;7.170;2023-01-09T13:36:52;1.83;;;1.10;;
5357;SDS011;2702;51.014;7.170;2023-01-09T13:39:26;1.33;;;1.20;;
5357;SDS011;2702;51.014;7.170;2023-01-09T13:42:04;1.67;;;1.57;;
5357;SDS011;2702;51.014;7.170;2023-01-09T13:45:07;3.30;;;1.57;;
5357;SDS011;2702;51.014;7.170;2023-01-09T13:47:45;1.50;;;1.40;;
5357;SDS011;2702;51.014;7.170;2023-01-09T13:50:25;1.83;;;1.30;;
5357;SDS011;2702;51.014;7.170;2023-01-09T13:52:51;2.80;;;1.60;;
5357;SDS011;2702;51.014;7.170;2023-01-09T13:57:43;1.97;;;1.50;;
5357;SDS011;2702;51.014;7.170;2023-01-09T14:08:21;2.40;;;1.50;;
5357;SDS011;2702;51.014;7.170;2023-01-09T14:19:00;2.93;;;1.57;;
5357;SDS011;2702;51.014;7.170;2023-01-09T14:21:45;1.53;;;1.43;;
5357;SDS011;2702;51.014;7.170;2023-01-09T14:24:27;3.17;;;1.80;;
5357;SDS011;2702;51.014;7.170;2023-01-09T14:26:59;3.70;;;2.13;;
5357;SDS011;2702;51.014;7.170;2023-01-09T14:34:47;1.83;;;1.50;;
5357;SDS011;2702;51.014;7.170;2023-01-09T14:37:21;2.23;;;1.50;;
5357;SDS011;2702;51.014;7.170;2023-01-09T14:39:48;2.63;;;2.43;;
5357;SDS011;2702;51.014;7.170;2023-01-09T14:42:17;2.70;;;1.63;;
5357;SDS011;2702;51.014;7.170;2023-01-09T14:50:40;2.50;;;1.63;;
5357;SDS011;2702;51.014;7.170;2023-01-09T14:52:46;2.50;;;1.60;;
5357;SDS011;2702;51.014;7.170;2023-01-09T14:55:30;2.20;;;1.50;;
5357;SDS011;2702;51.014;7.170;2023-01-09T14:58:23;3.23;;;1.70;;
5357;SDS011;2702;51.014;7.170;2023-01-09T15:01:03;3.77;;;1.60;;
5357;SDS011;2702;51.014;7.170;2023-01-09T15:03:42;2.60;;;1.87;;
5357;SDS011;2702;51.014;7.170;2023-01-09T15:06:14;2.60;;;1.77;;
5357;SDS011;2702;51.014;7.170;2023-01-09T15:08:45;3.03;;;1.60;;
5357;SDS011;2702;51.014;7.170;2023-01-09T15:11:19;5.53;;;2.00;;
5357;SDS011;2702;51.014;7.170;2023-01-09T15:13:45;4.03;;;2.33;;
5357;SDS011;2702;51.014;7.170;2023-01-09T15:16:21;6.63;;;2.43;;
5357;SDS011;2702;51.014;7.170;2023-01-09T15:18:49;4.30;;;2.20;;
5357;SDS011;2702;51.014;7.170;2023-01-09T15:21:25;4.60;;;2.37;;
5357;SDS011;2702;51.014;7.170;2023-01-09T15:26:50;3.13;;;1.80;;
5357;SDS011;2702;51.014;7.170;2023-01-09T15:29:20;2.37;;;2.17;;
5357;SDS011;2702;51.014;7.170;2023-01-09T15:31:49;2.23;;;2.00;;
5357;SDS011;2702;51.014;7.170;2023-01-09T15:34:22;2.20;;;1.80;;
5357;SDS011;2702;51.014;7.170;2023-01-09T15:36:49;5.67;;;2.47;;
5357;SDS011;2702;51.014;7.170;2023-01-09T15:39:35;2.50;;;2.10;;
5357;SDS011;2702;51.014;7.170;2023-01-09T15:42:02;3.57;;;1.83;;
5357;SDS011;2702;51.014;7.170;2023-01-09T15:44:47;3.37;;;2.00;;
5357;SDS011;2702;51.014;7.170;2023-01-09T15:47:19;2.70;;;2.17;;
5357;SDS011;2702;51.014;7.170;2023-01-09T15:49:53;4.10;;;2.60;;
5357;SDS011;2702;51.014;7.170;2023-01-09T15:52:21;3.80;;;2.20;;
5357;SDS011;2702;51.014;7.170;2023-01-09T15:54:48;5.03;;;2.40;;
5357;SDS011;2702;51.014;7.170;2023-01-09T15:59:49;3.60;;;1.70;;
5357;SDS011;2702;51.014;7.170;2023-01-09T16:02:16;4.17;;;1.83;;
5357;SDS011;2702;51.014;7.170;2023-01-09T16:05:12;1.70;;;1.57;;
5357;SDS011;2702;51.014;7.170;2023-01-09T16:07:44;3.73;;;1.77;;
5357;SDS011;2702;51.014;7.170;2023-01-09T16:10:33;4.63;;;2.10;;
5357;SDS011;2702;51.014;7.170;2023-01-09T16:13:00;4.33;;;2.50;;
5357;SDS011;2702;51.014;7.170;2023-01-09T16:15:26;3.40;;;2.50;;
5357;SDS011;2702;51.014;7.170;2023-01-09T16:20:30;5.43;;;2.53;;
5357;SDS011;2702;51.014;7.170;2023-01-09T16:22:56;4.23;;;2.30;;
5357;SDS011;2702;51.014;7.170;2023-01-09T16:25:24;2.63;;;2.37;;
5357;SDS011;2702;51.014;7.170;2023-01-09T16:31:02;3.33;;;2.30;;
5357;SDS011;2702;51.014;7.170;2023-01-09T16:33:34;2.37;;;2.17;;
5357;SDS011;2702;51.014;7.170;2023-01-09T16:36:00;3.40;;;2.00;;
5357;SDS011;2702;51.014;7.170;2023-01-09T16:38:29;3.47;;;2.77;;
5357;SDS011;2702;51.014;7.170;2023-01-09T16:40:59;3.20;;;2.83;;
5357;SDS011;2702;51.014;7.170;2023-01-09T16:43:55;4.30;;;2.77;;
5357;SDS011;2702;51.014;7.170;2023-01-09T16:46:21;5.03;;;3.70;;
5357;SDS011;2702;51.014;7.170;2023-01-09T16:48:47;3.80;;;3.50;;
5357;SDS011;2702;51.014;7.170;2023-01-09T16:51:14;4.70;;;3.80;;
5357;SDS011;2702;51.014;7.170;2023-01-09T16:53:43;6.60;;;4.80;;
5357;SDS011;2702;51.014;7.170;2023-01-09T16:56:13;7.50;;;4.43;;
5357;SDS011;2702;51.014;7.170;2023-01-09T16:58:47;6.37;;;4.70;;
5357;SDS011;2702;51.014;7.170;2023-01-09T17:01:14;4.50;;;4.10;;
5357;SDS011;2702;51.014;7.170;2023-01-09T17:03:41;7.43;;;4.07;;
5357;SDS011;2702;51.014;7.170;2023-01-09T17:06:09;6.00;;;3.90;;
5357;SDS011;2702;51.014;7.170;2023-01-09T17:08:48;8.40;;;4.03;;
5357;SDS011;2702;51.014;7.170;2023-01-09T17:11:22;4.60;;;4.03;;
5357;SDS011;2702;51.014;7.170;2023-01-09T17:13:56;4.40;;;3.00;;
5357;SDS011;2702;51.014;7.170;2023-01-09T17:16:22;5.47;;;3.27;;
5357;SDS011;2702;51.014;7.170;2023-01-09T17:18:48;4.10;;;3.40;;
5357;SDS011;2702;51.014;7.170;2023-01-09T17:21:21;5.20;;;2.97;;
5357;SDS011;2702;51.014;7.170;2023-01-09T17:23:53;2.97;;;2.67;;
5357;SDS011;2702;51.014;7.170;2023-01-09T17:26:39;3.30;;;3.00;;
5357;SDS011;2702;51.014;7.170;2023-01-09T17:29:26;4.67;;;3.17;;
5357;SDS011;2702;51.014;7.170;2023-01-09T17:31:53;5.30;;;3.00;;
5357;SDS011;2702;51.014;7.170;2023-01-09T17:34:19;4.40;;;3.30;;
5357;SDS011;2702;51.014;7.170;2023-01-09T17:36:45;3.93;;;3.23;;
5357;SDS011;2702;51.014;7.170;2023-01-09T17:39:14;2.97;;;2.20;;
5357;SDS011;2702;51.014;7.170;2023-01-09T17:41:41;4.50;;;2.70;;
5357;SDS011;2702;51.014;7.170;2023-01-09T17:44:08;4.30;;;3.17;;
5357;SDS011;2702;51.014;7.170;2023-01-09T17:46:36;3.50;;;2.93;;
5357;SDS011;2702;51.014;7.170;2023-01-09T17:49:05;3.20;;;2.90;;
5357;SDS011;2702;51.014;7.170;2023-01-09T17:51:32;3.77;;;3.40;;
5357;SDS011;2702;51.014;7.170;2023-01-09T17:53:58;5.63;;;3.10;;
5357;SDS011;2702;51.014;7.170;2023-01-09T17:56:24;4.37;;;2.90;;
5357;SDS011;2702;51.014;7.170;2023-01-09T17:58:53;4.30;;;3.70;;